createdAt,value
2022-10-13T00:01:27.437Z,101429.53
2022-10-13T00:03:56.632Z,101434.69
2022-10-13T00:06:26.272Z,101425.19
2022-10-13T00:08:56.699Z,101433.13
2022-10-13T00:11:28.318Z,101426.47
2022-10-13T00:14:02.100Z,101426.06
2022-10-13T00:16:31.799Z,101429.41
2022-10-13T00:19:00.242Z,101431.97
2022-10-13T00:21:28.720Z,101425.72
2022-10-13T00:23:58.148Z,101424.81
2022-10-13T00:26:26.699Z,101433.53
2022-10-13T00:28:55.808Z,101424.75
2022-10-13T00:31:27.157Z,101415.97
2022-10-13T00:33:56.085Z,101412.41
2022-10-13T00:36:25.523Z,101422.00
2022-10-13T00:38:53.954Z,101417.66
2022-10-13T00:41:22.563Z,101415.91
2022-10-13T00:44:03.613Z,101412.41
2022-10-13T00:46:34.272Z,101409.78
2022-10-13T00:49:08.574Z,101410.91
2022-10-13T00:51:45.150Z,101416.16
2022-10-13T00:54:17.465Z,101416.22
2022-10-13T00:56:46.154Z,101409.22
2022-10-13T00:59:23.060Z,101410.09
2022-10-13T01:01:55.712Z,101399.59
2022-10-13T01:04:28.938Z,101399.63
2022-10-13T01:06:58.178Z,101395.25
2022-10-13T01:09:27.098Z,101401.41
2022-10-13T01:12:26.456Z,101402.31
2022-10-13T01:15:13.334Z,101398.84
2022-10-13T01:17:56.390Z,101396.34
2022-10-13T01:20:49.092Z,101397.38
2022-10-13T01:23:38.579Z,101401.00
2022-10-13T01:26:25.816Z,101400.22
2022-10-13T01:29:17.059Z,101402.06
2022-10-13T01:31:54.724Z,101398.72
2022-10-13T01:34:29.319Z,101402.25
2022-10-13T01:36:58.117Z,101403.97
2022-10-13T01:39:38.727Z,101399.50
2022-10-13T01:42:17.701Z,101390.72
2022-10-13T01:44:50.815Z,101397.84
2022-10-13T01:47:21.274Z,101393.59
2022-10-13T01:49:53.506Z,101400.72
2022-10-13T01:52:26.603Z,101391.94
2022-10-13T01:54:55.265Z,101390.28
2022-10-13T01:57:37.234Z,101385.25
2022-10-13T02:00:26.299Z,101390.59
2022-10-13T02:03:11.629Z,101384.56
2022-10-13T02:05:49.510Z,101386.31
2022-10-13T02:08:23.948Z,101385.72
2022-10-13T02:11:02.040Z,101384.97
2022-10-13T02:13:33.404Z,101376.22
2022-10-13T02:16:02.865Z,101379.75
2022-10-13T02:18:33.787Z,101384.00
2022-10-13T02:21:03.195Z,101378.75
2022-10-13T02:23:32.381Z,101376.13
2022-10-13T02:26:00.534Z,101371.81
2022-10-13T02:28:29.990Z,101370.06
2022-10-13T02:30:58.834Z,101375.34
2022-10-13T02:33:27.613Z,101372.78
2022-10-13T02:35:55.765Z,101368.59
2022-10-13T02:38:23.685Z,101365.06
2022-10-13T02:40:52.067Z,101371.16
2022-10-13T02:43:22.159Z,101370.28
2022-10-13T02:45:51.065Z,101372.91
2022-10-13T02:48:19.437Z,101371.16
2022-10-13T02:50:48.115Z,101374.72
2022-10-13T02:53:16.312Z,101367.78
2022-10-13T02:55:44.932Z,101368.63
2022-10-13T02:58:13.950Z,101368.66
2022-10-13T03:00:43.376Z,101366.88
2022-10-13T03:03:11.850Z,101369.56
2022-10-13T03:05:40.597Z,101367.84
2022-10-13T03:08:08.502Z,101369.56
2022-10-13T03:10:37.778Z,101367.00
2022-10-13T03:13:06.395Z,101366.13
2022-10-13T03:15:35.304Z,101368.78
2022-10-13T03:18:04.015Z,101363.66
2022-10-13T03:20:32.821Z,101365.44
2022-10-13T03:23:01.417Z,101368.97
2022-10-13T03:25:29.363Z,101368.97
2022-10-13T03:27:58.528Z,101362.00
2022-10-13T03:30:26.930Z,101373.34
2022-10-13T03:33:05.309Z,101372.47
2022-10-13T03:35:33.998Z,101371.53
2022-10-13T03:38:01.590Z,101365.37
2022-10-13T03:40:30.866Z,101365.31
2022-10-13T03:42:58.781Z,101364.41
2022-10-13T03:45:26.852Z,101366.94
2022-10-13T03:47:55.140Z,101370.47
2022-10-13T03:50:23.128Z,101374.84
2022-10-13T03:52:50.770Z,101377.47
2022-10-13T03:55:18.944Z,101375.75
2022-10-13T03:57:47.122Z,101374.03
2022-10-13T04:00:17.002Z,101378.41
2022-10-13T04:02:44.865Z,101386.53
2022-10-13T04:05:13.447Z,101372.66
2022-10-13T04:07:41.147Z,101373.63
2022-10-13T04:10:16.018Z,101373.69
2022-10-13T04:12:44.842Z,101378.12
2022-10-13T04:15:12.792Z,101371.97
2022-10-13T04:17:42.041Z,101372.25
2022-10-13T04:20:10.860Z,101374.00
2022-10-13T04:22:39.378Z,101367.22
2022-10-13T04:25:08.649Z,101375.13
2022-10-13T04:27:39.243Z,101375.06
2022-10-13T04:30:09.476Z,101371.59
2022-10-13T04:32:40.320Z,101365.63
2022-10-13T04:35:10.688Z,101372.69
2022-10-13T04:37:42.775Z,101364.97
2022-10-13T04:40:13.945Z,101366.69
2022-10-13T04:42:42.522Z,101375.28
2022-10-13T04:45:10.654Z,101365.50
2022-10-13T04:47:40.936Z,101367.22
2022-10-13T04:50:09.795Z,101367.22
2022-10-13T04:52:37.993Z,101365.47
2022-10-13T04:55:07.499Z,101364.66
2022-10-13T04:57:36.351Z,101359.44
2022-10-13T05:00:09.149Z,101362.03
2022-10-13T05:02:38.413Z,101359.41
2022-10-13T05:05:07.733Z,101357.47
2022-10-13T05:07:36.744Z,101358.34
2022-10-13T05:10:05.875Z,101363.16
2022-10-13T05:12:33.703Z,101356.94
2022-10-13T05:15:02.005Z,101361.53
2022-10-13T05:17:35.285Z,101362.47
2022-10-13T05:20:07.237Z,101357.31
2022-10-13T05:22:35.283Z,101368.16
2022-10-13T05:25:03.308Z,101356.28
2022-10-13T05:27:31.950Z,101358.53
2022-10-13T05:30:01.412Z,101366.56
2022-10-13T05:32:39.384Z,101378.97
2022-10-13T05:35:11.044Z,101366.00
2022-10-13T05:37:41.579Z,101371.09
2022-10-13T05:43:09.143Z,101370.31
2022-10-13T05:45:39.618Z,101369.19
2022-10-13T05:48:14.298Z,101371.91
2022-10-13T05:50:44.642Z,101375.34
2022-10-13T05:53:15.169Z,101377.84
2022-10-13T05:55:44.607Z,101378.69
2022-10-13T05:58:14.900Z,101382.97
2022-10-13T06:00:44.449Z,101380.22
2022-10-13T06:03:16.279Z,101377.53
2022-10-13T06:05:47.639Z,101378.31
2022-10-13T06:08:20.633Z,101386.13
2022-10-13T06:10:53.368Z,101386.06
2022-10-13T06:13:25.018Z,101384.19
2022-10-13T06:16:14.778Z,101391.88
2022-10-13T06:18:45.119Z,101395.22
2022-10-13T06:21:14.209Z,101401.12
2022-10-13T06:23:43.597Z,101400.78
2022-10-13T06:26:12.372Z,101403.28
2022-10-13T06:28:40.365Z,101401.25
2022-10-13T06:31:08.846Z,101398.56
2022-10-13T06:33:38.497Z,101404.41
2022-10-13T06:36:07.613Z,101412.03
2022-10-13T06:38:36.012Z,101406.53
2022-10-13T06:41:04.827Z,101408.00
2022-10-13T06:43:40.372Z,101409.53
2022-10-13T06:46:11.935Z,101399.66
2022-10-13T06:48:41.026Z,101403.69
2022-10-13T06:51:12.248Z,101400.94
2022-10-13T06:53:40.286Z,101402.28
2022-10-13T06:56:08.773Z,101401.06
2022-10-13T06:58:39.982Z,101407.03
2022-10-13T07:01:40.554Z,101410.28
2022-10-13T07:04:35.336Z,101400.47
2022-10-13T07:07:03.879Z,101401.84
2022-10-13T07:09:32.401Z,101399.56
2022-10-13T07:12:02.400Z,101399.94
2022-10-13T07:14:31.201Z,101398.88
2022-10-13T07:17:03.498Z,101394.97
2022-10-13T07:19:32.125Z,101395.72
2022-10-13T07:22:02.140Z,101394.47
2022-10-13T07:24:31.197Z,101395.16
2022-10-13T07:27:06.762Z,101399.28
2022-10-13T07:29:37.855Z,101396.25
2022-10-13T07:32:09.301Z,101402.09
2022-10-13T07:34:58.136Z,101406.03
2022-10-13T07:38:14.499Z,101403.00
2022-10-13T07:41:25.061Z,101405.66
2022-10-13T07:44:08.623Z,101404.66
2022-10-13T07:46:45.821Z,101397.78
2022-10-13T07:51:01.110Z,101401.72
2022-10-13T07:53:16.846Z,101393.16
2022-10-13T07:56:22.481Z,101387.00
2022-10-13T07:58:50.323Z,101378.97
2022-10-13T08:01:18.921Z,101380.66
2022-10-13T08:03:50.338Z,101378.09
2022-10-13T08:06:21.022Z,101381.19
2022-10-13T08:09:01.912Z,101386.97
2022-10-13T08:11:32.769Z,101381.34
2022-10-13T08:14:08.612Z,101377.09
2022-10-13T08:16:51.450Z,101373.94
2022-10-13T08:19:28.816Z,101378.00
2022-10-13T08:22:00.102Z,101378.63
2022-10-13T08:24:35.339Z,101373.28
2022-10-13T08:27:05.462Z,101377.41
2022-10-13T08:29:38.232Z,101374.91
2022-10-13T08:32:11.887Z,101381.06
2022-10-13T08:34:45.957Z,101388.63
2022-10-13T08:37:18.055Z,101377.50
2022-10-13T08:39:48.018Z,101381.09
2022-10-13T08:42:23.469Z,101376.16
2022-10-13T08:52:17.499Z,101363.78
2022-10-13T08:54:48.234Z,101356.69
2022-10-13T08:57:19.001Z,101363.06
2022-10-13T08:59:52.370Z,101361.72
2022-10-13T09:02:35.582Z,101356.47
2022-10-13T09:05:11.563Z,101351.94
2022-10-13T09:07:44.267Z,101359.25
2022-10-13T09:10:16.472Z,101356.03
2022-10-13T09:12:45.458Z,101341.38
2022-10-13T09:15:14.560Z,101363.03
2022-10-13T09:17:44.627Z,101350.22
2022-10-13T09:20:22.687Z,101349.09
2022-10-13T09:23:08.612Z,101350.31
2022-10-13T09:25:42.310Z,101350.88
2022-10-13T09:28:17.252Z,101340.12
2022-10-13T09:34:40.266Z,101350.38
2022-10-13T09:37:23.515Z,101344.94
2022-10-13T09:40:21.806Z,101340.22
2022-10-13T09:42:51.971Z,101338.69
2022-10-13T09:45:23.259Z,101328.94
2022-10-13T09:47:58.301Z,101333.66
2022-10-13T09:50:28.203Z,101345.91
2022-10-13T09:53:14.772Z,101341.09
2022-10-13T09:55:48.574Z,101333.22
2022-10-13T09:58:26.516Z,101332.66
2022-10-13T10:04:13.293Z,101333.44
2022-10-13T10:06:46.819Z,101327.78
2022-10-13T10:09:16.313Z,101326.19
2022-10-13T10:12:12.310Z,101330.34
2022-10-13T10:15:02.992Z,101326.62
2022-10-13T10:25:29.592Z,101311.09
2022-10-13T10:28:37.743Z,101304.34
2022-10-13T10:31:52.441Z,101307.53
2022-10-13T10:34:54.552Z,101304.94
2022-10-13T10:37:51.673Z,101299.16
2022-10-13T10:40:29.432Z,101295.34
2022-10-13T10:43:55.931Z,101290.47
2022-10-13T10:46:34.922Z,101283.44
2022-10-13T10:49:50.269Z,101276.88
2022-10-13T10:52:57.922Z,101277.16
2022-10-13T10:56:56.198Z,101270.13
2022-10-13T11:00:12.476Z,101269.91
2022-10-13T11:03:06.624Z,101261.03
2022-10-13T11:09:12.365Z,101258.31
2022-10-13T11:11:44.008Z,101258.53
2022-10-13T11:14:24.210Z,101251.13
2022-10-13T11:17:15.408Z,101253.81
2022-10-13T11:20:01.831Z,101246.41
2022-10-13T11:22:31.738Z,101239.09
2022-10-13T11:25:04.229Z,101236.91
2022-10-13T11:27:36.666Z,101221.47
2022-10-13T11:30:44.067Z,101226.72
2022-10-13T11:33:33.960Z,101225.59
2022-10-13T11:36:41.487Z,101225.00
2022-10-13T11:42:25.056Z,101211.62
2022-10-13T11:48:41.830Z,101204.06
2022-10-13T11:51:43.095Z,101206.03
2022-10-13T11:54:38.830Z,101194.84
2022-10-13T11:57:24.765Z,101191.94
2022-10-13T11:59:58.037Z,101186.47
2022-10-13T12:02:31.899Z,101183.66
2022-10-13T12:05:24.643Z,101180.38
2022-10-13T12:07:55.699Z,101173.09
2022-10-13T12:10:40.339Z,101169.31
2022-10-13T12:13:25.153Z,101168.44
2022-10-13T12:16:09.382Z,101166.03
2022-10-13T12:19:10.793Z,101162.37
2022-10-13T12:21:54.651Z,101158.09
2022-10-13T12:24:27.919Z,101158.25
2022-10-13T12:27:13.154Z,101161.16
2022-10-13T12:29:45.728Z,101158.84
2022-10-13T12:32:29.874Z,101158.38
2022-10-13T12:35:16.826Z,101155.69
2022-10-13T12:37:47.653Z,101152.47
2022-10-13T12:40:18.257Z,101149.31
2022-10-13T12:42:51.059Z,101139.44
2022-10-13T12:45:25.388Z,101142.88
2022-10-13T12:47:54.858Z,101147.34
2022-10-13T12:50:32.271Z,101152.47
2022-10-13T12:53:19.542Z,101154.66
2022-10-13T12:56:00.636Z,101147.47
2022-10-13T12:58:36.816Z,101142.84
2022-10-13T13:01:16.167Z,101141.41
2022-10-13T13:03:54.963Z,101145.28
2022-10-13T13:06:31.678Z,101134.72
2022-10-13T13:09:30.466Z,101139.22
2022-10-13T13:12:07.810Z,101139.31
2022-10-13T13:14:39.964Z,101135.44
2022-10-13T13:17:45.347Z,101138.84
2022-10-13T13:20:38.812Z,101138.72
2022-10-13T13:23:09.149Z,101133.59
2022-10-13T13:25:44.389Z,101123.59
2022-10-13T13:28:15.279Z,101124.66
2022-10-13T13:30:45.207Z,101116.56
2022-10-13T13:33:13.482Z,101119.00
2022-10-13T13:35:42.749Z,101112.13
2022-10-13T13:38:11.601Z,101110.53
2022-10-13T13:40:39.298Z,101122.81
2022-10-13T13:43:08.508Z,101109.06
2022-10-13T13:45:37.779Z,101111.63
2022-10-13T13:48:11.078Z,101109.91
2022-10-13T13:50:40.106Z,101109.69
2022-10-13T13:53:10.975Z,101106.88
2022-10-13T13:55:40.159Z,101109.69
2022-10-13T13:58:11.389Z,101102.03
2022-10-13T14:00:39.397Z,101103.59
2022-10-13T14:03:09.961Z,101108.37
2022-10-13T14:05:41.671Z,101105.94
2022-10-13T14:08:11.643Z,101101.56
2022-10-13T14:10:40.820Z,101100.97
2022-10-13T14:13:08.558Z,101097.69
2022-10-13T14:15:36.959Z,101097.69
2022-10-13T14:18:04.778Z,101097.19
2022-10-13T14:20:33.473Z,101094.03
2022-10-13T14:23:01.703Z,101092.81
2022-10-13T14:25:29.285Z,101088.06
2022-10-13T14:27:58.474Z,101086.81
2022-10-13T14:30:29.217Z,101096.50
2022-10-13T14:32:57.427Z,101084.97
2022-10-13T14:35:26.533Z,101093.69
2022-10-13T14:37:54.581Z,101089.78
2022-10-13T14:40:23.702Z,101088.69
2022-10-13T14:42:51.311Z,101088.06
2022-10-13T14:45:19.268Z,101087.47
2022-10-13T14:47:47.657Z,101083.31
2022-10-13T14:50:16.969Z,101081.97
2022-10-13T14:52:46.354Z,101080.50
2022-10-13T14:55:14.027Z,101079.16
2022-10-13T14:57:44.796Z,101071.78
2022-10-13T15:00:14.549Z,101072.03
2022-10-13T15:02:42.669Z,101068.84
2022-10-13T15:05:10.481Z,101067.63
2022-10-13T15:07:41.130Z,101072.53
2022-10-13T15:10:09.872Z,101072.13
2022-10-13T15:12:37.525Z,101067.28
2022-10-13T15:15:06.012Z,101074.00
2022-10-13T15:17:33.959Z,101068.19
2022-10-13T15:20:01.566Z,101068.59
2022-10-13T15:22:31.336Z,101074.75
2022-10-13T15:24:58.889Z,101070.69
2022-10-13T15:27:26.889Z,101064.22
2022-10-13T15:29:55.006Z,101063.56
2022-10-13T15:32:22.906Z,101066.16
2022-10-13T15:34:52.118Z,101071.63
2022-10-13T15:37:20.133Z,101072.13
2022-10-13T15:39:50.984Z,101072.16
2022-10-13T15:42:21.312Z,101073.00
2022-10-13T15:47:38.260Z,101081.56
2022-10-13T15:50:07.072Z,101072.81
2022-10-13T15:52:40.469Z,101070.75
2022-10-13T15:55:10.431Z,101076.88
2022-10-13T15:57:38.826Z,101073.22
2022-10-13T16:00:08.627Z,101076.25
2022-10-13T16:02:41.826Z,101069.12
2022-10-13T16:05:13.711Z,101068.19
2022-10-13T16:07:42.234Z,101064.88
2022-10-13T16:10:12.740Z,101066.69
2022-10-13T16:12:44.410Z,101061.09
2022-10-13T16:15:21.009Z,101066.31
2022-10-13T16:17:51.878Z,101062.06
2022-10-13T16:20:26.959Z,101062.53
2022-10-13T16:22:55.026Z,101053.63
2022-10-13T16:25:23.466Z,101061.78
2022-10-13T16:27:52.003Z,101066.72
2022-10-13T16:30:20.075Z,101070.38
2022-10-13T16:32:48.525Z,101069.91
2022-10-13T16:35:16.783Z,101074.06
2022-10-13T16:37:44.445Z,101068.44
2022-10-13T16:40:12.940Z,101071.09
2022-10-13T16:42:41.849Z,101074.03
2022-10-13T16:45:09.858Z,101072.88
2022-10-13T16:47:38.247Z,101068.97
2022-10-13T16:50:09.718Z,101066.75
2022-10-13T16:52:38.538Z,101064.16
2022-10-13T16:55:06.747Z,101069.47
2022-10-13T16:57:34.573Z,101069.16
2022-10-13T17:00:02.587Z,101065.91
2022-10-13T17:02:30.357Z,101071.91
2022-10-13T17:04:57.950Z,101071.06
2022-10-13T17:07:26.455Z,101069.69
2022-10-13T17:09:54.768Z,101075.13
2022-10-13T17:12:22.439Z,101071.03
2022-10-13T17:14:50.306Z,101075.81
2022-10-13T17:17:18.136Z,101075.13
2022-10-13T17:19:46.245Z,101071.78
2022-10-13T17:22:14.180Z,101070.94
2022-10-13T17:24:48.014Z,101076.06
2022-10-13T17:27:16.612Z,101072.56
2022-10-13T17:29:45.726Z,101074.88
2022-10-13T17:32:13.439Z,101073.34
2022-10-13T17:34:41.362Z,101071.66
2022-10-13T17:37:09.878Z,101077.50
2022-10-13T17:39:39.439Z,101061.63
2022-10-13T17:42:08.062Z,101072.34
2022-10-13T17:44:35.617Z,101064.56
2022-10-13T17:47:03.219Z,101062.25
2022-10-13T17:49:31.189Z,101059.31
2022-10-13T17:51:59.887Z,101073.25
2022-10-13T17:54:27.620Z,101069.84
2022-10-13T17:56:59.137Z,101064.41
2022-10-13T17:59:27.677Z,101067.13
2022-10-13T18:01:56.075Z,101067.28
2022-10-13T18:04:24.091Z,101065.66
2022-10-13T18:06:52.165Z,101072.91
2022-10-13T18:09:21.304Z,101071.19
2022-10-13T18:11:51.148Z,101065.97
2022-10-13T18:14:24.377Z,101073.91
2022-10-13T18:16:53.179Z,101082.22
2022-10-13T18:19:22.189Z,101083.72
2022-10-13T18:21:52.925Z,101080.53
2022-10-13T18:24:21.597Z,101085.19
2022-10-13T18:26:49.237Z,101077.41
2022-10-13T18:29:17.479Z,101079.50
2022-10-13T18:31:45.424Z,101070.16
2022-10-13T18:34:16.029Z,101076.25
2022-10-13T18:36:48.152Z,101062.94
2022-10-13T18:39:19.733Z,101075.16
2022-10-13T18:41:49.683Z,101063.75
2022-10-13T18:44:18.220Z,101070.63
2022-10-13T18:46:50.419Z,101057.31
2022-10-13T18:49:20.647Z,101067.03
2022-10-13T18:51:50.667Z,101068.69
2022-10-13T18:54:18.978Z,101070.47
2022-10-13T18:56:46.733Z,101068.53
2022-10-13T18:59:15.121Z,101064.03
2022-10-13T19:01:44.415Z,101062.69
2022-10-13T19:04:14.762Z,101061.78
2022-10-13T19:06:43.139Z,101061.59
2022-10-13T19:09:13.395Z,101066.84
2022-10-13T19:11:41.840Z,101066.66
2022-10-13T19:14:12.543Z,101068.53
2022-10-13T19:16:43.641Z,101066.97
2022-10-13T19:19:12.632Z,101061.59
2022-10-13T19:21:41.221Z,101067.06
2022-10-13T19:24:22.604Z,101071.69
2022-10-13T19:26:50.944Z,101061.06
2022-10-13T19:29:18.999Z,101062.78
2022-10-13T19:31:46.661Z,101062.81
2022-10-13T19:34:15.613Z,101067.19
2022-10-13T19:36:46.341Z,101067.34
2022-10-13T19:39:20.762Z,101069.12
2022-10-13T19:41:49.472Z,101069.97
2022-10-13T19:44:19.530Z,101067.59
2022-10-13T19:46:55.146Z,101070.13
2022-10-13T19:49:26.684Z,101069.97
2022-10-13T19:51:54.902Z,101065.53
2022-10-13T19:54:23.050Z,101070.81
2022-10-13T19:56:51.805Z,101068.09
2022-10-13T19:59:19.986Z,101068.97
2022-10-13T20:01:48.247Z,101067.09
2022-10-13T20:04:19.331Z,101071.44
2022-10-13T20:06:48.719Z,101076.91
2022-10-13T20:09:17.410Z,101068.81
2022-10-13T20:11:46.930Z,101072.13
2022-10-13T20:14:15.551Z,101073.69
2022-10-13T20:16:43.499Z,101073.81
2022-10-13T20:19:16.601Z,101074.03
2022-10-13T20:21:48.033Z,101067.91
2022-10-13T20:24:15.981Z,101069.53
2022-10-13T20:26:44.126Z,101067.06
2022-10-13T20:29:12.786Z,101068.06
2022-10-13T20:31:41.121Z,101073.47
2022-10-13T20:34:10.587Z,101062.28
2022-10-13T20:36:39.510Z,101065.78
2022-10-13T20:39:09.037Z,101064.97
2022-10-13T20:41:36.858Z,101063.50
2022-10-13T20:44:04.942Z,101064.47
2022-10-13T20:46:34.278Z,101057.37
2022-10-13T20:49:12.610Z,101054.63
2022-10-13T20:51:42.135Z,101049.34
2022-10-13T20:54:11.629Z,101049.59
2022-10-13T20:56:39.495Z,101053.16
2022-10-13T20:59:12.203Z,101046.00
2022-10-13T21:01:39.867Z,101040.53
2022-10-13T21:04:08.100Z,101044.53
2022-10-13T21:06:39.173Z,101048.44
2022-10-13T21:09:07.174Z,101049.81
2022-10-13T21:11:35.093Z,101046.81
2022-10-13T21:14:07.046Z,101041.44
2022-10-13T21:16:35.506Z,101050.16
2022-10-13T21:19:07.221Z,101050.16
2022-10-13T21:21:36.635Z,101049.09
2022-10-13T21:24:06.598Z,101044.53
2022-10-13T21:26:34.755Z,101039.03
2022-10-13T21:29:05.056Z,101049.69
2022-10-13T21:31:34.634Z,101053.72
2022-10-13T21:34:02.511Z,101052.22
2022-10-13T21:36:31.875Z,101054.41
2022-10-13T21:39:02.288Z,101050.72
2022-10-13T21:41:31.684Z,101047.34
2022-10-13T21:43:59.733Z,101047.06
2022-10-13T21:46:32.379Z,101041.00
2022-10-13T21:49:03.917Z,101040.22
2022-10-13T21:51:39.174Z,101036.22
2022-10-13T21:54:11.922Z,101035.44
2022-10-13T21:56:40.273Z,101040.06
2022-10-13T21:59:08.412Z,101040.97
2022-10-13T22:01:36.303Z,101033.91
2022-10-13T22:04:12.720Z,101033.91
2022-10-13T22:06:40.716Z,101035.91
2022-10-13T22:09:09.138Z,101030.13
2022-10-13T22:11:39.135Z,101028.50
2022-10-13T22:14:12.333Z,101033.94
2022-10-13T22:16:43.542Z,101034.81
2022-10-13T22:19:11.740Z,101034.94
2022-10-13T22:21:42.983Z,101038.53
2022-10-13T22:24:17.213Z,101044.97
2022-10-13T22:26:46.899Z,101045.03
2022-10-13T22:29:19.854Z,101037.00
2022-10-13T22:31:48.224Z,101038.91
2022-10-13T22:34:19.681Z,101037.37
2022-10-13T22:36:48.153Z,101038.56
2022-10-13T22:39:16.179Z,101039.31
2022-10-13T22:41:44.222Z,101040.81
2022-10-13T22:44:12.139Z,101044.22
2022-10-13T22:46:40.559Z,101035.62
2022-10-13T22:49:13.622Z,101036.66
2022-10-13T22:51:41.671Z,101030.78
2022-10-13T22:54:10.144Z,101034.72
2022-10-13T22:56:37.853Z,101029.44
2022-10-13T22:59:08.150Z,101033.75
2022-10-13T23:01:36.269Z,101027.50
2022-10-13T23:04:04.921Z,101029.22
2022-10-13T23:06:33.974Z,101029.22
2022-10-13T23:09:04.926Z,101026.56
2022-10-13T23:11:33.257Z,101032.63
2022-10-13T23:14:01.529Z,101029.13
2022-10-13T23:16:29.446Z,101019.72
2022-10-13T23:18:57.718Z,101022.47
2022-10-13T23:21:28.452Z,101023.28
2022-10-13T23:24:01.532Z,101021.44
2022-10-13T23:26:30.239Z,101025.84
2022-10-13T23:28:58.556Z,101021.62
2022-10-13T23:31:28.078Z,101021.75
2022-10-13T23:33:56.494Z,101014.13
2022-10-13T23:36:28.004Z,101015.28
2022-10-13T23:39:06.353Z,101007.56
2022-10-13T23:41:34.734Z,101012.87
2022-10-13T23:44:02.617Z,101009.66
2022-10-13T23:46:30.635Z,101017.84
2022-10-13T23:48:58.210Z,101016.47
2022-10-13T23:51:26.863Z,101015.78
2022-10-13T23:53:55.287Z,101007.19
2022-10-13T23:56:23.316Z,101012.59
2022-10-13T23:58:53.182Z,101007.56
